Aeroporto :
LOGIN :

Iscrizione | Disclaimer

   EN    FR    IT 

 










Sommario :    VFR   VFR Marginale   IFR   IFR Intensivo   IFR Molto Intensivo
Visibilità : 
Base nubi : 
>= 8 km
>= 3000ft
5 / 8 km
1000 / 3000 ft
1500m / 5 km
500 / 1000 ft
800 / 1500m
200 / 500 ft
< 800m
< 200 ft
Simboli :   Temporali  Nebbia  Neve Forte  Precipitazioni Forti  Vento > 20 kt
SIGMETs :   Varie  Temporali  Ghiacco  Turbolenza  Onda orograficha  Ceneri Vulcaniche






- Altitudine del aeroporto : 327 ft
- Codice IATA : BHX


EGBB - Birmingham

ULTIMO METAR :
  • 020550Z 07006KT 5000 RA BKN006 03/02 Q0988

METARs OBSOLETI :
  • 020520Z 09005KT 5000 -RADZ OVC007 03/02 Q0988
  • 020450Z 09005KT 9999 OVC007 03/02 Q0988
  • 020420Z 09008KT 9999 OVC008 03/02 Q0988
  • 012050Z 11008KT 9999 FEW013 BKN025 03/01 Q0990
  • 020350Z 09008KT 9999 OVC008 03/02 Q0988
  • 020320Z 08005KT 9999 OVC007 03/02 Q0989
  • 020250Z 08005KT 9999 -RA BKN008 03/02 Q0989
  • 020220Z 08007KT 8000 -RA SCT009 BKN012 03/02 Q0989 RERA
  • 020150Z 09006KT 5000 RA SCT007 BKN011 04/02 Q0989
  • 020120Z 08006KT 9999 BKN011 04/02 Q0989

TAF TAF EGBB
Valido dal 02 a 06 ore il 03 a 06 ore UTC


020500Z 0206/0306 09009KT 9999 BKN010
TEMPO 0206/0211 6000 RA SHRA BKN006
PROB30
TEMPO 0206/0210 4000 +RA BKN004
BECMG 0209/0212 SCT018
TEMPO 0211/0218 6000 SHRA RA BKN012
PROB40
TEMPO 0211/0217 4000 +SHRA BKN008 BKN015CB
BECMG 0212/0215 17010KT
TEMPO 0218/0223 8000 -RADZ BKN008
PROB30
TEMPO 0223/0302 BKN007
BECMG 0302/0305 23005KT
PROB40 0302/0306 2000 BR
ATIS : +44 121 780 0910



MetMap, La meteo Aeronautica in un colpo d'occhio ! - Copyright ORBIFLY Dicembre 2007 - Disclaimer

ORBIFLY MET'MAP TEAM :

Programmazione e sviluppo : Alexandra Zaïnal
Concezione : Baudouin d'Aumeries
Supporto tecnico e logistico : Manuel Goepfert
Aiuto : Marc-Olivier Méhu
Aiuto per la traduzione : Arnaldo La Scala




FONTI E CREDITI :

   NOAA